Time;durP1;ratioP1;P1;durP2;ratioP2;P2;SDS_P1;SDS_P2;PMS_P1;PMS_P2;Temp;Humidity;BMP_temperature;BMP_pressure;BME280_temperature;BME280_humidity;BME280_pressure;Samples;Min_cycle;Max_cycle;Signal;HPM_P1;HPM_P2
2021/12/02 00:01:10;;;;;;;7.55;0.90;;;4.80;99.90;;;;;;5137811;27;20047;-64
2021/12/02 00:03:37;;;;;;;3.63;0.60;;;4.80;99.90;;;;;;5137250;27;20047;-65
2021/12/02 00:06:07;;;;;;;4.70;0.93;;;4.80;99.90;;;;;;5119651;27;20043;-64
2021/12/02 00:08:33;;;;;;;7.43;0.70;;;4.80;99.90;;;;;;5102713;27;20057;-65
2021/12/02 00:10:59;;;;;;;5.35;0.77;;;4.80;99.90;;;;;;5119195;27;20047;-65
2021/12/02 00:13:27;;;;;;;3.65;0.57;;;4.70;99.90;;;;;;5119338;27;20042;-64
2021/12/02 00:16:00;;;;;;;7.78;0.93;;;4.80;99.90;;;;;;5137611;27;20118;-65
2021/12/02 00:23:34;;;;;;;6.57;1.05;;;4.80;99.90;;;;;;5137571;27;20126;-64
2021/12/02 00:26:12;;;;;;;2.40;0.50;;;4.80;99.90;;;;;;5137255;27;20123;-65
2021/12/02 00:28:40;;;;;;;2.53;0.50;;;4.80;99.90;;;;;;5137404;27;20051;-64
2021/12/02 00:31:15;;;;;;;5.30;0.60;;;4.80;99.90;;;;;;5137162;27;20047;-64
2021/12/02 00:33:45;;;;;;;4.10;0.60;;;4.80;99.90;;;;;;5136691;27;20050;-65
2021/12/02 00:36:12;;;;;;;2.72;0.43;;;4.80;99.90;;;;;;5137188;27;20134;-64
2021/12/02 00:38:41;;;;;;;5.65;0.73;;;4.80;99.90;;;;;;5118829;27;20047;-65
2021/12/02 00:41:11;;;;;;;2.40;0.40;;;4.80;99.90;;;;;;5136763;27;20501;-65
2021/12/02 00:43:39;;;;;;;4.40;0.77;;;4.80;99.90;;;;;;5137264;27;20047;-65
2021/12/02 00:46:09;;;;;;;2.67;0.73;;;4.80;99.90;;;;;;5136061;27;20039;-64
2021/12/02 00:48:36;;;;;;;4.35;0.57;;;4.80;99.90;;;;;;5136706;27;20035;-64
2021/12/02 00:51:03;;;;;;;5.55;0.55;;;4.80;99.90;;;;;;5136819;27;20451;-64
2021/12/02 00:53:32;;;;;;;1.98;0.57;;;4.80;99.90;;;;;;5136374;27;20510;-64
2021/12/02 00:56:02;;;;;;;6.07;0.50;;;4.70;99.90;;;;;;5136907;27;20048;-64
2021/12/02 00:58:30;;;;;;;1.92;0.30;;;4.70;99.90;;;;;;5137010;27;20074;-65
2021/12/02 01:00:57;;;;;;;2.47;0.30;;;4.70;99.90;;;;;;5136444;27;20478;-64
2021/12/02 01:03:24;;;;;;;3.20;0.70;;;4.60;99.90;;;;;;5118530;27;20057;-64
2021/12/02 01:05:52;;;;;;;4.03;0.40;;;4.60;99.90;;;;;;5135756;27;20482;-65
2021/12/02 01:08:20;;;;;;;3.13;0.38;;;4.60;99.90;;;;;;5137267;27;20501;-64
2021/12/02 01:10:46;;;;;;;3.50;0.40;;;4.60;99.90;;;;;;5118111;27;20047;-64
2021/12/02 01:13:12;;;;;;;4.03;0.47;;;4.60;99.90;;;;;;5118319;27;20065;-64
2021/12/02 01:15:38;;;;;;;1.48;0.32;;;4.60;99.90;;;;;;5136496;27;20082;-64
2021/12/02 01:18:04;;;;;;;2.75;0.40;;;4.60;99.90;;;;;;5136446;27;20069;-65
2021/12/02 01:20:32;;;;;;;3.00;0.43;;;4.70;99.90;;;;;;5136278;27;20130;-64
2021/12/02 01:23:00;;;;;;;1.92;0.30;;;4.70;99.90;;;;;;5136375;27;20126;-64
2021/12/02 01:25:30;;;;;;;5.07;0.68;;;4.60;99.90;;;;;;5135865;27;20039;-64
2021/12/02 01:27:58;;;;;;;3.78;0.50;;;4.60;99.90;;;;;;5118235;27;20202;-65
2021/12/02 01:30:29;;;;;;;5.20;0.60;;;4.70;99.90;;;;;;5117626;27;20086;-65
2021/12/02 01:33:14;;;;;;;2.40;0.50;;;4.70;99.90;;;;;;5136155;27;20043;-65
2021/12/02 01:35:40;;;;;;;5.22;0.60;;;4.70;99.90;;;;;;5135606;27;20043;-65
2021/12/02 01:38:06;;;;;;;8.65;0.70;;;4.60;99.90;;;;;;5136023;27;20047;-65
2021/12/02 01:40:32;;;;;;;5.78;0.77;;;4.60;99.90;;;;;;5135868;27;20047;-65
2021/12/02 01:42:58;;;;;;;4.20;0.70;;;4.50;99.90;;;;;;5135971;27;20031;-65
2021/12/02 01:45:27;;;;;;;2.75;0.60;;;4.50;99.90;;;;;;5100989;27;20080;-65
2021/12/02 01:47:55;;;;;;;7.45;0.68;;;4.50;99.90;;;;;;5135785;27;20055;-64
2021/12/02 01:50:23;;;;;;;5.57;0.80;;;4.40;99.90;;;;;;5135585;27;20486;-64
2021/12/02 01:52:55;;;;;;;5.60;0.60;;;4.40;99.90;;;;;;5113712;28;20047;-64
2021/12/02 01:55:22;;;;;;;5.47;0.40;;;4.40;99.90;;;;;;5114475;28;20051;-64
2021/12/02 01:58:05;;;;;;;2.75;0.65;;;4.40;99.90;;;;;;5114975;28;20052;-64
2021/12/02 02:00:41;;;;;;;5.38;0.43;;;4.40;99.90;;;;;;5113743;28;20096;-64
2021/12/02 02:03:09;;;;;;;4.00;0.45;;;4.40;99.90;;;;;;5115226;28;20494;-64
2021/12/02 02:05:36;;;;;;;4.68;0.55;;;4.40;99.90;;;;;;5114295;28;20039;-65
2021/12/02 02:08:10;;;;;;;2.47;0.40;;;4.30;99.90;;;;;;5114642;28;20048;-65
2021/12/02 02:10:39;;;;;;;3.65;0.38;;;4.30;99.90;;;;;;5114774;28;20088;-64
2021/12/02 02:13:10;;;;;;;4.97;0.40;;;4.30;99.90;;;;;;5114490;28;20131;-64
2021/12/02 02:15:37;;;;;;;5.53;0.40;;;4.30;99.90;;;;;;5097460;28;20047;-64
2021/12/02 02:18:19;;;;;;;3.50;0.50;;;4.30;99.90;;;;;;5113591;28;20547;-64
2021/12/02 02:23:20;;;;;;;4.68;0.45;;;4.30;99.90;;;;;;5114680;28;20055;-65
2021/12/02 02:25:47;;;;;;;1.98;0.30;;;4.30;99.90;;;;;;5113297;28;20093;-65
2021/12/02 02:28:14;;;;;;;3.70;0.30;;;4.20;99.90;;;;;;5113613;28;20441;-64
2021/12/02 02:30:41;;;;;;;2.63;0.40;;;4.30;99.90;;;;;;5114025;28;20046;-65
2021/12/02 02:33:10;;;;;;;4.43;0.30;;;4.30;99.90;;;;;;5114744;28;20082;-64
2021/12/02 02:35:36;;;;;;;3.40;0.38;;;4.30;99.90;;;;;;5112627;28;20046;-65
2021/12/02 02:38:02;;;;;;;2.58;0.30;;;4.20;99.90;;;;;;5114335;28;20123;-65
2021/12/02 02:40:28;;;;;;;2.80;0.30;;;4.30;99.90;;;;;;5114180;28;20542;-64
2021/12/02 02:42:59;;;;;;;2.40;0.30;;;4.30;99.90;;;;;;5113328;28;20482;-64
2021/12/02 02:45:25;;;;;;;3.28;0.50;;;4.30;99.90;;;;;;5114395;28;20049;-65
2021/12/02 02:47:51;;;;;;;3.10;0.40;;;4.30;99.90;;;;;;5113130;28;20062;-65
2021/12/02 02:50:18;;;;;;;2.72;0.40;;;4.30;99.90;;;;;;5114106;28;20119;-65
2021/12/02 02:52:45;;;;;;;2.35;0.40;;;4.20;99.90;;;;;;5123054;27;20059;-64
2021/12/02 02:55:15;;;;;;;1.85;0.30;;;4.20;99.90;;;;;;5134705;27;20082;-65
2021/12/02 02:58:11;;;;;;;3.15;0.30;;;4.20;99.90;;;;;;5116717;28;20039;-65
2021/12/02 03:00:34;;;;;;;3.47;0.32;;;4.10;99.90;;;;;;5133667;27;20535;-65
2021/12/02 03:03:21;;;;;;;2.95;0.50;;;4.10;99.90;;;;;;5134888;27;20082;-65
2021/12/02 03:08:19;;;;;;;3.22;0.32;;;4.00;99.90;;;;;;5134682;27;20058;-65
2021/12/02 03:10:53;;;;;;;3.42;0.50;;;4.00;99.90;;;;;;5134103;28;20043;-66
2021/12/02 03:13:22;;;;;;;1.13;0.20;;;4.40;99.90;;;;;;5116120;28;20057;-65
2021/12/02 03:18:35;;;;;;;0.45;0.10;;;3.90;99.90;;;;;;5134477;28;20050;-65
2021/12/02 03:21:01;;;;;;;1.33;0.10;;;3.80;99.90;;;;;;5134225;28;20047;-65
2021/12/02 03:23:27;;;;;;;2.63;0.15;;;3.80;99.90;;;;;;5134472;28;20051;-65
2021/12/02 03:25:53;;;;;;;1.00;0.17;;;3.80;99.90;;;;;;5134254;28;20104;-65
2021/12/02 03:28:19;;;;;;;1.00;0.20;;;3.70;99.90;;;;;;5134320;28;20135;-65
2021/12/02 03:30:44;;;;;;;0.85;0.20;;;3.70;99.90;;;;;;5116032;28;20100;-65
2021/12/02 03:33:10;;;;;;;2.80;0.20;;;4.00;99.90;;;;;;5134376;28;20091;-65
2021/12/02 03:35:36;;;;;;;1.80;0.20;;;3.50;99.90;;;;;;5133727;28;20043;-66
2021/12/02 03:38:02;;;;;;;0.88;0.10;;;3.50;99.90;;;;;;5134245;28;20039;-65
2021/12/02 03:40:28;;;;;;;3.45;0.30;;;3.40;99.90;;;;;;5133877;28;20479;-65
2021/12/02 03:42:54;;;;;;;1.60;0.20;;;4.20;99.90;;;;;;5134186;28;20053;-65
2021/12/02 03:45:25;;;;;;;1.98;0.30;;;3.80;99.90;;;;;;5115700;28;20058;-65
2021/12/02 03:47:51;;;;;;;0.82;0.20;;;3.80;99.90;;;;;;5134530;28;20440;-65
2021/12/02 03:50:17;;;;;;;1.63;0.20;;;3.50;99.90;;;;;;5133978;28;20495;-65
2021/12/02 03:52:43;;;;;;;2.33;0.30;;;3.40;99.90;;;;;;5134020;28;20093;-65
2021/12/02 03:55:09;;;;;;;1.98;0.30;;;3.40;99.90;;;;;;5115919;28;20082;-65
2021/12/02 03:57:34;;;;;;;1.65;0.30;;;3.40;99.90;;;;;;5134526;28;20479;-65
2021/12/02 04:00:03;;;;;;;1.25;0.20;;;3.90;99.90;;;;;;5115881;28;20386;-66
2021/12/02 04:02:28;;;;;;;1.38;0.20;;;3.40;99.90;;;;;;5133982;28;20102;-66
2021/12/02 04:04:54;;;;;;;2.40;0.38;;;3.60;99.90;;;;;;5133372;28;20491;-66
2021/12/02 04:07:24;;;;;;;1.48;0.20;;;3.80;99.90;;;;;;5115609;28;20498;-66
2021/12/02 04:09:49;;;;;;;2.13;0.20;;;3.50;99.90;;;;;;5115475;28;20081;-65
2021/12/02 04:14:58;;;;;;;1.08;0.20;;;3.60;99.90;;;;;;5115848;28;20406;-66
2021/12/02 04:17:41;;;;;;;3.35;0.25;;;3.70;99.90;;;;;;5116082;28;20058;-66
2021/12/02 04:20:11;;;;;;;2.72;0.25;;;4.20;99.90;;;;;;5133811;27;20047;-66
2021/12/02 04:22:38;;;;;;;2.92;0.30;;;3.60;99.90;;;;;;5118690;27;20172;-65
2021/12/02 04:25:05;;;;;;;1.40;0.20;;;3.70;99.90;;;;;;5137511;27;20047;-66
2021/12/02 04:27:31;;;;;;;1.48;0.20;;;3.70;99.90;;;;;;5137363;27;20078;-65
2021/12/02 04:29:56;;;;;;;1.65;0.30;;;3.60;99.90;;;;;;5136925;27;20092;-65
2021/12/02 04:32:22;;;;;;;1.10;0.20;;;3.60;99.90;;;;;;5119137;27;20054;-65
2021/12/02 04:34:48;;;;;;;1.63;0.20;;;3.90;99.90;;;;;;5118392;27;20080;-66
2021/12/02 04:37:13;;;;;;;1.60;0.17;;;3.70;99.90;;;;;;5137585;27;20043;-65
2021/12/02 04:39:39;;;;;;;0.77;0.20;;;3.70;99.90;;;;;;5136829;27;20502;-66
2021/12/02 04:42:05;;;;;;;1.75;0.25;;;3.80;99.90;;;;;;5119061;27;20045;-66
2021/12/02 04:44:30;;;;;;;1.08;0.20;;;3.60;99.90;;;;;;5118991;27;20663;-66
2021/12/02 04:46:56;;;;;;;0.95;0.10;;;3.80;99.90;;;;;;5136946;27;20047;-66
2021/12/02 04:49:22;;;;;;;1.80;0.20;;;3.80;99.90;;;;;;5136861;27;20039;-67
2021/12/02 04:51:48;;;;;;;0.20;0.10;;;3.90;99.90;;;;;;5137149;27;20047;-67
2021/12/02 04:54:14;;;;;;;0.80;0.10;;;3.00;99.90;;;;;;5137034;27;20058;-66
2021/12/02 04:56:39;;;;;;;2.95;0.30;;;3.40;99.90;;;;;;5136849;27;20047;-67
2021/12/02 04:59:05;;;;;;;0.80;0.20;;;3.20;99.90;;;;;;5136864;27;20043;-66
2021/12/02 05:01:31;;;;;;;1.90;0.10;;;3.00;99.90;;;;;;5118712;27;20095;-66
2021/12/02 05:03:57;;;;;;;0.40;0.10;;;3.00;99.90;;;;;;5100766;27;20122;-67
2021/12/02 05:06:22;;;;;;;0.52;0.10;;;3.10;99.90;;;;;;5136667;27;20078;-66
2021/12/02 05:08:48;;;;;;;0.52;0.10;;;3.40;99.90;;;;;;5136696;27;20122;-66
2021/12/02 05:11:14;;;;;;;0.82;0.10;;;3.10;99.90;;;;;;5118201;27;20555;-66
2021/12/02 05:13:40;;;;;;;1.58;0.10;;;2.90;99.90;;;;;;5101362;27;20046;-65
2021/12/02 05:16:05;;;;;;;0.40;0.10;;;2.90;99.90;;;;;;5136563;27;20479;-66
2021/12/02 05:18:31;;;;;;;0.10;0.08;;;2.80;99.90;;;;;;5136414;27;20058;-66
2021/12/02 05:20:57;;;;;;;0.43;0.00;;;3.60;99.90;;;;;;5117988;27;20043;-65
2021/12/02 05:23:23;;;;;;;0.20;0.10;;;4.20;99.90;;;;;;5136363;27;20039;-66
2021/12/02 05:25:49;;;;;;;1.08;0.10;;;3.10;99.90;;;;;;5136383;27;20043;-66
2021/12/02 05:28:18;;;;;;;0.20;0.00;;;3.40;99.90;;;;;;5136298;27;20475;-66
2021/12/02 05:30:46;;;;;;;0.00;0.00;;;2.90;99.90;;;;;;5136083;27;20043;-65
2021/12/02 05:33:12;;;;;;;0.10;0.08;;;3.80;99.90;;;;;;5135714;27;20079;-66
2021/12/02 05:35:38;;;;;;;0.20;0.00;;;3.40;99.90;;;;;;5135488;27;20093;-66
2021/12/02 05:38:04;;;;;;;0.20;0.10;;;3.10;99.90;;;;;;5117747;27;20079;-66
2021/12/02 05:40:30;;;;;;;0.70;0.00;;;2.90;99.90;;;;;;5135873;27;20051;-66
2021/12/02 05:42:56;;;;;;;0.55;0.10;;;2.90;99.90;;;;;;5135962;27;20043;-65
2021/12/02 05:45:21;;;;;;;0.57;0.00;;;2.70;99.90;;;;;;5100639;27;20099;-65
2021/12/02 05:47:47;;;;;;;1.27;0.10;;;2.80;99.90;;;;;;5100615;27;20050;-65
2021/12/02 05:50:13;;;;;;;0.30;0.10;;;2.70;99.90;;;;;;5135597;27;20043;-66
2021/12/02 05:52:39;;;;;;;2.00;0.10;;;4.20;99.90;;;;;;5135460;27;20464;-65
2021/12/02 05:55:05;;;;;;;0.38;0.03;;;2.70;99.90;;;;;;5135728;27;20058;-65
2021/12/02 05:57:31;;;;;;;0.73;0.10;;;2.70;99.90;;;;;;5135641;27;20069;-65
2021/12/02 05:59:58;;;;;;;0.63;0.05;;;2.50;99.90;;;;;;5135745;27;20047;-66
2021/12/02 06:02:23;;;;;;;0.35;0.10;;;2.70;99.90;;;;;;5135490;27;20092;-66
2021/12/02 06:04:52;;;;;;;0.93;0.10;;;3.40;99.90;;;;;;5116824;27;20058;-66
2021/12/02 06:07:19;;;;;;;0.40;0.20;;;2.60;99.90;;;;;;5135408;27;20072;-65
2021/12/02 06:09:45;;;;;;;0.10;0.10;;;2.60;99.90;;;;;;5135707;27;20047;-66
2021/12/02 06:12:12;;;;;;;0.30;0.10;;;2.60;99.90;;;;;;5135364;27;20051;-66
2021/12/02 06:14:37;;;;;;;0.47;0.10;;;2.70;99.90;;;;;;5135406;27;20047;-66
2021/12/02 06:17:03;;;;;;;2.05;0.10;;;3.00;99.90;;;;;;5135294;27;20387;-66
2021/12/02 06:19:29;;;;;;;0.45;0.20;;;2.60;99.90;;;;;;5117005;27;20047;-67
2021/12/02 06:21:55;;;;;;;0.45;0.20;;;2.60;99.90;;;;;;5135261;27;20081;-66
2021/12/02 06:24:29;;;;;;;0.50;0.20;;;2.50;99.90;;;;;;5117027;27;20047;-67
2021/12/02 06:26:56;;;;;;;1.95;0.40;;;2.50;99.90;;;;;;5117637;27;20047;-66
2021/12/02 06:29:22;;;;;;;0.52;0.30;;;2.50;99.90;;;;;;5134934;27;20047;-66
2021/12/02 06:31:47;;;;;;;2.63;0.63;;;2.80;99.90;;;;;;5134749;27;20047;-66
2021/12/02 06:34:13;;;;;;;1.10;0.30;;;2.20;99.90;;;;;;5134379;27;20078;-66
2021/12/02 06:36:39;;;;;;;0.90;0.20;;;2.50;99.90;;;;;;5134870;27;20122;-67
2021/12/02 06:39:05;;;;;;;0.75;0.40;;;2.10;99.90;;;;;;5135639;27;20046;-66
2021/12/02 06:41:32;;;;;;;1.98;0.20;;;2.80;99.90;;;;;;5134905;27;20051;-66
2021/12/02 06:43:58;;;;;;;1.38;0.35;;;2.40;99.90;;;;;;5134425;27;20043;-66
2021/12/02 06:46:24;;;;;;;1.08;0.20;;;2.30;99.90;;;;;;5116514;27;20550;-67
2021/12/02 06:48:49;;;;;;;1.35;0.30;;;4.10;99.90;;;;;;5116634;27;20049;-66
2021/12/02 06:51:18;;;;;;;1.02;0.20;;;3.00;99.90;;;;;;5134666;27;20462;-66
2021/12/02 06:53:44;;;;;;;0.25;0.20;;;2.30;99.90;;;;;;5134487;27;20051;-66
2021/12/02 06:56:10;;;;;;;0.63;0.35;;;3.80;99.90;;;;;;5134716;27;20047;-67
2021/12/02 06:58:36;;;;;;;2.05;0.40;;;2.20;99.90;;;;;;5134649;27;20076;-66
2021/12/02 07:01:02;;;;;;;0.47;0.20;;;2.50;99.90;;;;;;5099184;27;20046;-67
2021/12/02 07:03:28;;;;;;;0.90;0.30;;;3.00;99.90;;;;;;5134560;27;20043;-67
2021/12/02 07:05:53;;;;;;;0.98;0.30;;;2.50;99.90;;;;;;5115585;28;20074;-66
2021/12/02 07:08:20;;;;;;;1.05;0.30;;;3.00;99.90;;;;;;5134585;27;20208;-66
2021/12/02 07:10:47;;;;;;;2.20;0.40;;;3.20;99.90;;;;;;5116555;28;20055;-66
2021/12/02 07:13:13;;;;;;;0.80;0.40;;;2.50;99.90;;;;;;5134468;28;20390;-66
2021/12/02 07:15:44;;;;;;;1.75;0.40;;;4.10;99.90;;;;;;5116402;28;20039;-65
2021/12/02 07:18:14;;;;;;;1.80;0.40;;;3.00;99.90;;;;;;5134599;28;20066;-65
2021/12/02 07:20:42;;;;;;;1.60;0.73;;;3.20;99.90;;;;;;5134226;28;20143;-65
2021/12/02 07:23:08;;;;;;;2.40;1.00;;;2.60;99.90;;;;;;5134569;28;20409;-66
2021/12/02 07:25:34;;;;;;;6.05;1.85;;;3.00;99.90;;;;;;5134408;28;20371;-65
2021/12/02 07:28:01;;;;;;;3.45;1.23;;;2.50;99.90;;;;;;5134516;28;20047;-65
2021/12/02 07:30:27;;;;;;;4.85;1.83;;;2.50;99.90;;;;;;5134197;28;20444;-65
2021/12/02 07:32:56;;;;;;;3.05;1.50;;;2.50;99.90;;;;;;5134473;28;20043;-66
2021/12/02 07:35:24;;;;;;;2.22;1.10;;;2.50;99.90;;;;;;5133869;28;20078;-66
2021/12/02 07:37:52;;;;;;;2.97;1.10;;;4.00;99.90;;;;;;5134158;28;20086;-65
2021/12/02 07:40:20;;;;;;;2.45;1.30;;;2.20;99.90;;;;;;5134077;28;20040;-65
2021/12/02 07:42:47;;;;;;;3.45;1.25;;;2.30;99.90;;;;;;5134219;28;20047;-65
2021/12/02 07:45:14;;;;;;;1.73;0.47;;;2.30;99.90;;;;;;5134261;28;20044;-65
2021/12/02 07:47:41;;;;;;;2.08;0.50;;;1.90;99.90;;;;;;5134097;28;20043;-65
2021/12/02 07:50:09;;;;;;;1.80;0.70;;;2.10;99.90;;;;;;5133996;28;20398;-66
2021/12/02 07:52:44;;;;;;;1.95;0.70;;;2.20;99.90;;;;;;5133989;28;20399;-66
2021/12/02 07:55:13;;;;;;;2.03;0.52;;;3.30;99.90;;;;;;5117046;27;20127;-66
2021/12/02 07:57:42;;;;;;;2.55;0.30;;;2.00;99.90;;;;;;5103437;27;20059;-66
2021/12/02 08:00:09;;;;;;;1.00;0.38;;;2.20;99.90;;;;;;5119796;27;20047;-66
2021/12/02 08:02:36;;;;;;;1.02;0.30;;;2.10;99.90;;;;;;5119595;27;20420;-65
2021/12/02 08:05:02;;;;;;;1.70;0.43;;;2.10;99.90;;;;;;5119177;27;20043;-66
2021/12/02 08:07:28;;;;;;;1.15;0.30;;;2.10;99.90;;;;;;5137898;27;20039;-66
2021/12/02 08:09:54;;;;;;;1.50;0.30;;;2.10;99.90;;;;;;5119589;27;20055;-65
2021/12/02 08:12:20;;;;;;;5.50;2.78;;;2.10;99.90;;;;;;5137958;27;20047;-66
2021/12/02 08:14:45;;;;;;;11.30;5.78;;;2.00;99.90;;;;;;5138010;27;20043;-65
2021/12/02 08:17:11;;;;;;;0.28;0.20;;;2.10;99.90;;;;;;5137832;27;20083;-66
2021/12/02 08:19:37;;;;;;;0.82;0.30;;;2.40;99.90;;;;;;5137692;27;20049;-66
2021/12/02 08:22:03;;;;;;;1.85;0.50;;;2.80;99.90;;;;;;5137795;27;20039;-66
2021/12/02 08:24:29;;;;;;;4.70;0.80;;;2.20;99.90;;;;;;5137681;27;20043;-65
2021/12/02 08:26:54;;;;;;;1.40;0.50;;;2.20;99.90;;;;;;5137848;27;20045;-66
2021/12/02 08:29:21;;;;;;;1.35;0.35;;;2.80;99.90;;;;;;5137758;27;20065;-65
2021/12/02 08:31:48;;;;;;;1.80;0.15;;;2.20;99.90;;;;;;5102239;27;20104;-66
2021/12/02 08:34:15;;;;;;;0.32;0.20;;;2.00;99.90;;;;;;5137159;27;20051;-66
2021/12/02 08:36:47;;;;;;;2.40;0.25;;;2.30;99.90;;;;;;5137502;27;20402;-66
2021/12/02 08:39:17;;;;;;;0.65;0.30;;;2.40;99.90;;;;;;5137875;27;20047;-65
2021/12/02 08:41:47;;;;;;;1.08;0.50;;;2.50;99.90;;;;;;5137648;27;20107;-65
2021/12/02 08:44:14;;;;;;;1.25;0.20;;;3.00;99.90;;;;;;5137656;27;20091;-65
2021/12/02 08:46:41;;;;;;;2.25;0.30;;;3.80;99.90;;;;;;5137306;27;20035;-65
2021/12/02 08:49:06;;;;;;;0.40;0.30;;;3.20;99.90;;;;;;5119001;27;20071;-65
2021/12/02 08:51:32;;;;;;;0.98;0.30;;;3.80;99.90;;;;;;5137119;27;20074;-65
2021/12/02 08:53:58;;;;;;;0.85;0.30;;;2.50;99.90;;;;;;5145203;27;20062;-66
2021/12/02 08:56:24;;;;;;;1.52;0.30;;;3.50;99.90;;;;;;5147180;27;20046;-66
2021/12/02 08:58:51;;;;;;;1.10;0.30;;;4.80;99.90;;;;;;5110698;27;20078;-66
2021/12/02 09:01:18;;;;;;;2.90;0.50;;;2.50;99.90;;;;;;5143449;27;20035;-66
2021/12/02 09:03:44;;;;;;;2.95;0.52;;;2.50;99.90;;;;;;5146828;27;20049;-66
2021/12/02 09:06:11;;;;;;;1.50;0.50;;;3.60;99.90;;;;;;5147345;27;21185;-66
2021/12/02 09:08:39;;;;;;;1.83;0.50;;;2.50;99.90;;;;;;5142969;27;20430;-65
2021/12/02 09:11:05;;;;;;;1.13;0.60;;;2.70;99.90;;;;;;5146420;27;20042;-65
2021/12/02 09:13:31;;;;;;;1.02;0.60;;;4.30;99.90;;;;;;5147805;27;20455;-67
2021/12/02 09:15:57;;;;;;;3.00;0.65;;;2.70;99.90;;;;;;5145860;27;20073;-66
2021/12/02 09:18:23;;;;;;;2.55;1.02;;;2.90;99.90;;;;;;5146590;27;20070;-66
2021/12/02 09:20:49;;;;;;;2.88;0.80;;;2.90;99.90;;;;;;5146964;27;20498;-66
2021/12/02 09:23:16;;;;;;;3.72;0.90;;;2.70;99.90;;;;;;5145280;27;20043;-65
2021/12/02 09:25:42;;;;;;;1.88;1.10;;;2.90;99.90;;;;;;5146580;27;20035;-66
2021/12/02 09:28:08;;;;;;;2.38;0.70;;;2.90;99.90;;;;;;5128936;27;20051;-66
2021/12/02 09:30:35;;;;;;;0.70;0.60;;;3.50;99.90;;;;;;5126870;27;20068;-66
2021/12/02 09:33:01;;;;;;;1.75;0.57;;;3.00;99.90;;;;;;5146671;27;20090;-66
2021/12/02 09:35:27;;;;;;;0.98;0.55;;;3.80;99.90;;;;;;5146280;27;20039;-66
2021/12/02 09:37:52;;;;;;;2.47;0.73;;;3.10;99.90;;;;;;5144989;27;20043;-67
2021/12/02 09:40:19;;;;;;;2.47;0.70;;;3.20;99.90;;;;;;5146786;27;20042;-67
2021/12/02 09:42:46;;;;;;;2.42;0.98;;;3.20;99.90;;;;;;5127926;27;20043;-66
2021/12/02 09:45:13;;;;;;;2.42;0.80;;;3.90;99.90;;;;;;5144556;27;20054;-66
2021/12/02 09:47:42;;;;;;;0.57;0.45;;;3.30;99.90;;;;;;5126809;27;20035;-66
2021/12/02 09:50:28;;;;;;;2.22;0.80;;;3.30;99.90;;;;;;5145247;27;20069;-66
2021/12/02 09:53:00;;;;;;;2.22;0.52;;;3.80;99.90;;;;;;5146627;27;20054;-66
2021/12/02 09:56:28;;;;;;;1.92;0.50;;;3.30;99.90;;;;;;5146189;27;20078;-66
2021/12/02 09:58:26;;;;;;;0.70;0.50;;;3.00;99.90;;;;;;5122803;27;20051;-66
2021/12/02 10:01:00;;;;;;;0.77;0.30;;;3.10;99.90;;;;;;5144602;27;20039;-66
2021/12/02 10:03:33;;;;;;;1.00;0.70;;;3.20;99.90;;;;;;5145468;27;20039;-66
2021/12/02 10:06:05;;;;;;;0.35;0.30;;;4.40;99.90;;;;;;5142150;27;20071;-65
2021/12/02 10:08:38;;;;;;;7.40;0.50;;;3.20;99.90;;;;;;5144556;27;20115;-65
2021/12/02 10:11:08;;;;;;;3.00;0.40;;;2.80;99.90;;;;;;5145638;27;20046;-66
2021/12/02 10:14:00;;;;;;;2.40;0.30;;;3.30;99.90;;;;;;5146584;27;20086;-65
2021/12/02 10:16:31;;;;;;;1.33;0.50;;;4.70;99.90;;;;;;5144368;27;20039;-66
2021/12/02 10:19:09;;;;;;;2.40;0.30;;;2.80;99.90;;;;;;5124506;27;20043;-66
2021/12/02 10:21:42;;;;;;;1.25;0.30;;;3.10;99.90;;;;;;5144357;27;20072;-66
2021/12/02 10:24:20;;;;;;;0.98;0.50;;;3.60;99.90;;;;;;5144715;27;20058;-66
2021/12/02 10:26:49;;;;;;;1.02;0.43;;;2.90;99.90;;;;;;5125964;27;20039;-66
2021/12/02 10:29:22;;;;;;;1.95;0.40;;;2.50;99.90;;;;;;5143995;27;20035;-65
2021/12/02 10:32:07;;;;;;;0.97;0.30;;;2.80;99.90;;;;;;5144597;27;20042;-66
2021/12/02 10:34:48;;;;;;;0.73;0.30;;;2.90;99.90;;;;;;5145127;27;20312;-66
2021/12/02 10:37:14;;;;;;;1.90;0.50;;;3.00;99.90;;;;;;5146118;27;20043;-67
2021/12/02 10:39:40;;;;;;;2.05;0.38;;;4.60;99.90;;;;;;5144043;27;20111;-66
2021/12/02 10:42:08;;;;;;;1.20;0.45;;;3.00;99.90;;;;;;5086550;27;20497;-66
2021/12/02 10:44:36;;;;;;;2.40;1.80;;;3.00;99.90;;;;;;5127461;27;20047;-66
2021/12/02 10:47:13;;;;;;;0.88;0.70;;;3.20;99.90;;;;;;5089529;27;20043;-66
2021/12/02 10:49:43;;;;;;;1.33;0.60;;;3.10;99.90;;;;;;5088017;27;20501;-66
2021/12/02 10:52:16;;;;;;;0.60;0.50;;;3.50;99.90;;;;;;5117981;27;20051;-66
2021/12/02 10:54:46;;;;;;;1.35;0.80;;;3.10;99.90;;;;;;5119859;27;20573;-66
2021/12/02 10:57:21;;;;;;;2.42;0.40;;;3.00;99.90;;;;;;5145735;27;20080;-66
2021/12/02 10:59:52;;;;;;;1.13;0.32;;;5.00;99.90;;;;;;5135868;27;20036;-65
2021/12/02 11:02:31;;;;;;;0.45;0.40;;;3.30;99.90;;;;;;5117901;27;20063;-65
2021/12/02 11:05:02;;;;;;;2.33;0.50;;;3.30;99.90;;;;;;5121698;27;20497;-66
2021/12/02 11:07:30;;;;;;;2.08;0.40;;;3.30;99.90;;;;;;5143587;27;20038;-65
2021/12/02 11:09:59;;;;;;;1.33;0.40;;;3.30;99.90;;;;;;5145049;27;20498;-65
2021/12/02 11:12:45;;;;;;;2.03;0.30;;;3.00;99.90;;;;;;5144271;27;20041;-66
2021/12/02 11:15:21;;;;;;;1.65;0.20;;;3.40;99.90;;;;;;5126083;27;20475;-66
2021/12/02 11:17:59;;;;;;;1.50;0.00;;;3.40;99.90;;;;;;5143185;27;20118;-65
2021/12/02 11:20:36;;;;;;;0.10;0.00;;;3.50;99.90;;;;;;5142699;27;20031;-65
2021/12/02 11:23:07;;;;;;;0.08;0.00;;;3.50;99.90;;;;;;5123347;27;20050;-66
2021/12/02 11:25:39;;;;;;;0.10;0.10;;;3.50;99.90;;;;;;5142664;27;20039;-66
2021/12/02 11:28:07;;;;;;;0.40;0.03;;;3.30;99.90;;;;;;5144403;27;20038;-66
2021/12/02 11:30:35;;;;;;;0.63;0.22;;;3.70;99.90;;;;;;5128574;27;20042;-67
2021/12/02 11:33:09;;;;;;;0.98;0.22;;;3.20;99.90;;;;;;5112209;27;20514;-66
2021/12/02 11:35:41;;;;;;;0.52;0.20;;;2.70;99.90;;;;;;5127220;27;20039;-67
2021/12/02 11:38:22;;;;;;;1.33;0.30;;;2.60;99.90;;;;;;5147633;27;20170;-68
2021/12/02 11:40:51;;;;;;;0.32;0.20;;;2.70;99.90;;;;;;5144039;27;20565;-67
2021/12/02 11:43:19;;;;;;;0.38;0.10;;;4.50;99.90;;;;;;5148154;27;20041;-67
2021/12/02 11:45:48;;;;;;;0.95;0.32;;;3.80;99.90;;;;;;5147654;27;20521;-66
2021/12/02 11:48:16;;;;;;;1.00;0.10;;;2.40;99.90;;;;;;5128318;27;20444;-66
2021/12/02 11:50:42;;;;;;;0.65;0.10;;;2.50;99.90;;;;;;5148123;27;20092;-66
2021/12/02 11:53:08;;;;;;;0.28;0.20;;;3.50;99.90;;;;;;5148122;27;20063;-66
2021/12/02 11:55:38;;;;;;;2.55;0.20;;;3.40;99.90;;;;;;5146765;27;20123;-66
2021/12/02 11:58:04;;;;;;;2.20;1.13;;;2.50;99.90;;;;;;5129709;27;20594;-65
2021/12/02 12:00:31;;;;;;;0.70;0.30;;;3.10;99.90;;;;;;5148525;27;20077;-66
2021/12/02 12:03:09;;;;;;;0.25;0.13;;;3.40;99.90;;;;;;5146773;27;20046;-65
2021/12/02 12:05:52;;;;;;;0.93;0.30;;;2.80;99.90;;;;;;5146027;27;20079;-66
2021/12/02 12:08:35;;;;;;;2.55;0.70;;;3.20;99.90;;;;;;5144015;27;20042;-66
2021/12/02 12:11:25;;;;;;;2.43;0.40;;;2.80;99.90;;;;;;5109559;27;20118;-66
2021/12/02 12:13:56;;;;;;;1.35;0.30;;;3.50;99.90;;;;;;5129040;27;20043;-66
2021/12/02 12:16:34;;;;;;;1.83;0.40;;;2.80;99.90;;;;;;5144685;27;20122;-66
2021/12/02 12:19:22;;;;;;;1.35;0.30;;;2.70;99.90;;;;;;5144242;27;20133;-66
2021/12/02 12:21:57;;;;;;;0.75;0.20;;;2.60;99.90;;;;;;5128196;27;20126;-67
2021/12/02 12:25:03;;;;;;;1.13;0.10;;;3.10;99.90;;;;;;5126116;27;20122;-65
2021/12/02 12:27:35;;;;;;;0.55;0.10;;;2.40;99.90;;;;;;5143807;27;20046;-68
2021/12/02 12:30:01;;;;;;;0.35;0.10;;;2.30;99.90;;;;;;5126179;27;20039;-67
2021/12/02 12:33:00;;;;;;;0.55;0.10;;;3.40;99.90;;;;;;5146843;27;20042;-67
2021/12/02 12:35:55;;;;;;;0.17;0.10;;;2.20;99.90;;;;;;5145053;27;20046;-68
2021/12/02 12:38:23;;;;;;;0.30;0.10;;;2.90;99.90;;;;;;5144345;27;20072;-67
2021/12/02 12:40:53;;;;;;;1.35;0.20;;;2.60;99.90;;;;;;5146044;27;20042;-67
2021/12/02 12:43:22;;;;;;;1.48;0.10;;;2.00;99.90;;;;;;5123551;27;20038;-67
2021/12/02 12:45:48;;;;;;;0.98;0.10;;;2.50;99.90;;;;;;5146394;27;20042;-68
2021/12/02 12:48:30;;;;;;;0.60;0.30;;;2.30;99.90;;;;;;5145076;27;20034;-68
2021/12/02 12:51:32;;;;;;;0.20;0.20;;;3.10;99.90;;;;;;5148121;27;20042;-68
2021/12/02 12:54:00;;;;;;;1.00;0.20;;;2.40;99.90;;;;;;5099486;27;20122;-67
2021/12/02 12:56:40;;;;;;;0.30;0.30;;;2.40;99.90;;;;;;5111700;27;20038;-68
2021/12/02 12:59:15;;;;;;;1.00;0.40;;;2.50;99.90;;;;;;5145552;27;20467;-68
2021/12/02 13:02:00;;;;;;;2.38;0.20;;;2.30;99.90;;;;;;5125794;27;20035;-67
2021/12/02 13:04:27;;;;;;;0.10;0.10;;;2.50;99.90;;;;;;5145020;27;20043;-68
2021/12/02 13:07:03;;;;;;;0.52;0.52;;;4.00;99.90;;;;;;5145697;27;20114;-68
2021/12/02 13:09:39;;;;;;;0.85;0.30;;;2.50;99.90;;;;;;5146314;27;20070;-68
2021/12/02 13:12:05;;;;;;;0.40;0.28;;;3.10;99.90;;;;;;5126741;27;20047;-68
2021/12/02 13:14:33;;;;;;;0.57;0.20;;;2.50;99.90;;;;;;5127528;27;20091;-68
2021/12/02 13:16:58;;;;;;;1.13;0.20;;;2.30;99.90;;;;;;5142993;27;20055;-67
2021/12/02 13:19:26;;;;;;;0.38;0.20;;;4.20;99.90;;;;;;5146817;27;20031;-68
2021/12/02 13:22:02;;;;;;;0.90;0.47;;;2.60;99.90;;;;;;5147573;27;20051;-68
2021/12/02 13:24:35;;;;;;;1.38;0.38;;;2.70;99.90;;;;;;5127297;27;20136;-68